sensor_id;sensor_type;location;lat;lon;timestamp;temperature;humidity
35970;DHT22;22448;51.298;6.430;2023-05-29T00:00:39;14.10;99.90
35970;DHT22;22448;51.298;6.430;2023-05-29T00:03:07;14.00;99.90
35970;DHT22;22448;51.298;6.430;2023-05-29T00:05:36;14.00;99.90
35970;DHT22;22448;51.298;6.430;2023-05-29T00:08:03;13.90;99.90
35970;DHT22;22448;51.298;6.430;2023-05-29T00:10:30;13.90;99.90
35970;DHT22;22448;51.298;6.430;2023-05-29T00:12:58;13.90;99.90
35970;DHT22;22448;51.298;6.430;2023-05-29T00:15:25;13.80;99.90
35970;DHT22;22448;51.298;6.430;2023-05-29T00:17:52;13.70;99.90
35970;DHT22;22448;51.298;6.430;2023-05-29T00:20:19;13.70;99.90
35970;DHT22;22448;51.298;6.430;2023-05-29T00:22:46;13.70;99.90
35970;DHT22;22448;51.298;6.430;2023-05-29T00:25:15;13.60;99.90
35970;DHT22;22448;51.298;6.430;2023-05-29T00:27:42;13.60;99.90
35970;DHT22;22448;51.298;6.430;2023-05-29T00:30:09;13.50;99.90
35970;DHT22;22448;51.298;6.430;2023-05-29T00:32:36;13.50;99.90
35970;DHT22;22448;51.298;6.430;2023-05-29T00:35:03;13.40;99.90
35970;DHT22;22448;51.298;6.430;2023-05-29T00:37:30;13.40;99.90
35970;DHT22;22448;51.298;6.430;2023-05-29T00:39:58;13.30;99.90
35970;DHT22;22448;51.298;6.430;2023-05-29T00:42:25;13.30;99.90
35970;DHT22;22448;51.298;6.430;2023-05-29T00:44:53;13.30;99.90
35970;DHT22;22448;51.298;6.430;2023-05-29T00:47:20;13.30;99.90
35970;DHT22;22448;51.298;6.430;2023-05-29T00:49:47;13.20;99.90
35970;DHT22;22448;51.298;6.430;2023-05-29T00:52:18;13.20;99.90
35970;DHT22;22448;51.298;6.430;2023-05-29T00:54:46;13.10;99.90
35970;DHT22;22448;51.298;6.430;2023-05-29T00:57:14;13.10;99.90
35970;DHT22;22448;51.298;6.430;2023-05-29T00:59:44;13.00;99.90
35970;DHT22;22448;51.298;6.430;2023-05-29T01:02:12;13.00;99.90
35970;DHT22;22448;51.298;6.430;2023-05-29T01:04:40;12.90;99.90
35970;DHT22;22448;51.298;6.430;2023-05-29T01:07:07;12.90;99.90
35970;DHT22;22448;51.298;6.430;2023-05-29T01:09:36;12.80;99.90
35970;DHT22;22448;51.298;6.430;2023-05-29T01:15:15;12.70;99.90
35970;DHT22;22448;51.298;6.430;2023-05-29T01:29:04;12.40;99.90
35970;DHT22;22448;51.298;6.430;2023-05-29T01:31:32;12.40;99.90
35970;DHT22;22448;51.298;6.430;2023-05-29T01:34:00;12.30;99.90
35970;DHT22;22448;51.298;6.430;2023-05-29T01:36:27;12.20;99.90
35970;DHT22;22448;51.298;6.430;2023-05-29T01:38:56;12.20;99.90
35970;DHT22;22448;51.298;6.430;2023-05-29T01:41:24;12.10;99.90
35970;DHT22;22448;51.298;6.430;2023-05-29T01:43:53;12.10;99.90
35970;DHT22;22448;51.298;6.430;2023-05-29T01:46:20;12.00;99.90
35970;DHT22;22448;51.298;6.430;2023-05-29T01:48:48;12.00;99.90
35970;DHT22;22448;51.298;6.430;2023-05-29T01:51:16;12.00;99.90
35970;DHT22;22448;51.298;6.430;2023-05-29T01:53:43;11.90;99.90
35970;DHT22;22448;51.298;6.430;2023-05-29T01:56:11;11.90;99.90
35970;DHT22;22448;51.298;6.430;2023-05-29T01:58:40;11.80;99.90
35970;DHT22;22448;51.298;6.430;2023-05-29T02:01:07;11.80;99.90
35970;DHT22;22448;51.298;6.430;2023-05-29T02:03:34;11.70;99.90
35970;DHT22;22448;51.298;6.430;2023-05-29T02:06:02;11.70;99.90
35970;DHT22;22448;51.298;6.430;2023-05-29T02:08:29;11.70;99.90
35970;DHT22;22448;51.298;6.430;2023-05-29T02:10:56;11.70;99.90
35970;DHT22;22448;51.298;6.430;2023-05-29T02:13:23;11.60;99.90
35970;DHT22;22448;51.298;6.430;2023-05-29T02:15:50;11.60;99.90
35970;DHT22;22448;51.298;6.430;2023-05-29T02:18:18;11.50;99.90
35970;DHT22;22448;51.298;6.430;2023-05-29T02:20:46;11.50;99.90
35970;DHT22;22448;51.298;6.430;2023-05-29T02:23:20;11.40;99.90
35970;DHT22;22448;51.298;6.430;2023-05-29T02:25:50;11.40;99.90
35970;DHT22;22448;51.298;6.430;2023-05-29T02:28:18;11.30;99.90
35970;DHT22;22448;51.298;6.430;2023-05-29T02:30:45;11.30;99.90
35970;DHT22;22448;51.298;6.430;2023-05-29T02:33:12;11.30;99.90
35970;DHT22;22448;51.298;6.430;2023-05-29T02:35:39;11.20;99.90
35970;DHT22;22448;51.298;6.430;2023-05-29T02:38:07;11.20;99.90
35970;DHT22;22448;51.298;6.430;2023-05-29T02:40:34;11.20;99.90
35970;DHT22;22448;51.298;6.430;2023-05-29T02:43:01;11.10;99.90
35970;DHT22;22448;51.298;6.430;2023-05-29T02:45:30;11.10;99.90
35970;DHT22;22448;51.298;6.430;2023-05-29T02:47:57;11.10;99.90
35970;DHT22;22448;51.298;6.430;2023-05-29T02:50:26;11.00;99.90
35970;DHT22;22448;51.298;6.430;2023-05-29T02:52:53;11.00;99.90
35970;DHT22;22448;51.298;6.430;2023-05-29T02:55:20;11.00;99.90
35970;DHT22;22448;51.298;6.430;2023-05-29T02:57:47;10.90;99.90
35970;DHT22;22448;51.298;6.430;2023-05-29T03:00:19;11.00;99.90
35970;DHT22;22448;51.298;6.430;2023-05-29T03:02:46;10.90;99.90
35970;DHT22;22448;51.298;6.430;2023-05-29T03:05:13;10.80;99.90
35970;DHT22;22448;51.298;6.430;2023-05-29T03:07:40;10.80;99.90
35970;DHT22;22448;51.298;6.430;2023-05-29T03:10:08;10.70;99.90
35970;DHT22;22448;51.298;6.430;2023-05-29T03:12:37;10.70;99.90
35970;DHT22;22448;51.298;6.430;2023-05-29T03:15:04;10.60;99.90
35970;DHT22;22448;51.298;6.430;2023-05-29T03:17:31;10.60;99.90
35970;DHT22;22448;51.298;6.430;2023-05-29T03:19:59;10.60;99.90
35970;DHT22;22448;51.298;6.430;2023-05-29T03:22:26;10.50;99.90
35970;DHT22;22448;51.298;6.430;2023-05-29T03:24:54;10.50;99.90
35970;DHT22;22448;51.298;6.430;2023-05-29T03:27:21;10.50;99.90
35970;DHT22;22448;51.298;6.430;2023-05-29T03:29:58;10.40;99.90
35970;DHT22;22448;51.298;6.430;2023-05-29T03:32:26;10.40;99.90
35970;DHT22;22448;51.298;6.430;2023-05-29T03:34:53;10.40;99.90
35970;DHT22;22448;51.298;6.430;2023-05-29T03:37:20;10.40;99.90
35970;DHT22;22448;51.298;6.430;2023-05-29T03:39:47;10.30;99.90
35970;DHT22;22448;51.298;6.430;2023-05-29T03:42:14;10.30;99.90
35970;DHT22;22448;51.298;6.430;2023-05-29T03:44:42;10.40;99.90
35970;DHT22;22448;51.298;6.430;2023-05-29T03:47:10;10.30;99.90
35970;DHT22;22448;51.298;6.430;2023-05-29T03:49:37;10.30;99.90
35970;DHT22;22448;51.298;6.430;2023-05-29T03:52:04;10.30;99.90
35970;DHT22;22448;51.298;6.430;2023-05-29T03:54:32;10.30;99.90
35970;DHT22;22448;51.298;6.430;2023-05-29T03:57:01;10.30;99.90
35970;DHT22;22448;51.298;6.430;2023-05-29T03:59:29;10.30;99.90
35970;DHT22;22448;51.298;6.430;2023-05-29T04:01:57;10.30;99.90
35970;DHT22;22448;51.298;6.430;2023-05-29T04:04:24;10.30;99.90
35970;DHT22;22448;51.298;6.430;2023-05-29T04:06:51;10.30;99.90
35970;DHT22;22448;51.298;6.430;2023-05-29T04:09:18;10.30;99.90
35970;DHT22;22448;51.298;6.430;2023-05-29T04:11:45;10.30;99.90
35970;DHT22;22448;51.298;6.430;2023-05-29T04:14:13;10.30;99.90
35970;DHT22;22448;51.298;6.430;2023-05-29T04:16:40;10.30;99.90
35970;DHT22;22448;51.298;6.430;2023-05-29T04:19:07;10.40;99.90
35970;DHT22;22448;51.298;6.430;2023-05-29T04:21:34;10.40;99.90
35970;DHT22;22448;51.298;6.430;2023-05-29T04:24:01;10.40;99.90
35970;DHT22;22448;51.298;6.430;2023-05-29T04:26:28;10.40;99.90
35970;DHT22;22448;51.298;6.430;2023-05-29T04:28:55;10.50;99.90
35970;DHT22;22448;51.298;6.430;2023-05-29T04:31:26;10.50;99.90
35970;DHT22;22448;51.298;6.430;2023-05-29T04:33:55;10.50;99.90
35970;DHT22;22448;51.298;6.430;2023-05-29T04:36:23;10.50;99.90
35970;DHT22;22448;51.298;6.430;2023-05-29T04:39:02;10.50;99.90
35970;DHT22;22448;51.298;6.430;2023-05-29T04:41:30;10.60;99.90
35970;DHT22;22448;51.298;6.430;2023-05-29T04:43:59;10.70;99.90
35970;DHT22;22448;51.298;6.430;2023-05-29T04:46:33;10.60;99.90
35970;DHT22;22448;51.298;6.430;2023-05-29T04:49:03;10.70;99.90
35970;DHT22;22448;51.298;6.430;2023-05-29T04:51:31;10.80;99.90
35970;DHT22;22448;51.298;6.430;2023-05-29T04:53:58;10.80;99.90
35970;DHT22;22448;51.298;6.430;2023-05-29T04:56:25;10.90;99.90
35970;DHT22;22448;51.298;6.430;2023-05-29T04:58:53;10.90;99.90
35970;DHT22;22448;51.298;6.430;2023-05-29T05:01:21;11.20;99.90
35970;DHT22;22448;51.298;6.430;2023-05-29T05:03:48;12.50;99.90
35970;DHT22;22448;51.298;6.430;2023-05-29T05:06:15;13.90;99.90
35970;DHT22;22448;51.298;6.430;2023-05-29T05:08:43;14.70;99.90
35970;DHT22;22448;51.298;6.430;2023-05-29T05:11:11;15.30;99.90
35970;DHT22;22448;51.298;6.430;2023-05-29T05:13:39;16.00;99.90
35970;DHT22;22448;51.298;6.430;2023-05-29T05:16:06;16.50;99.90
35970;DHT22;22448;51.298;6.430;2023-05-29T05:18:34;17.10;99.90
35970;DHT22;22448;51.298;6.430;2023-05-29T05:21:03;17.50;99.90
35970;DHT22;22448;51.298;6.430;2023-05-29T05:23:32;17.20;99.90
35970;DHT22;22448;51.298;6.430;2023-05-29T05:26:19;17.10;99.90
35970;DHT22;22448;51.298;6.430;2023-05-29T05:28:47;17.10;99.90
35970;DHT22;22448;51.298;6.430;2023-05-29T05:31:14;17.50;99.90
35970;DHT22;22448;51.298;6.430;2023-05-29T05:33:41;17.70;99.90
35970;DHT22;22448;51.298;6.430;2023-05-29T05:36:09;18.00;99.90
35970;DHT22;22448;51.298;6.430;2023-05-29T05:38:38;18.60;99.90
35970;DHT22;22448;51.298;6.430;2023-05-29T05:41:05;18.90;99.90
35970;DHT22;22448;51.298;6.430;2023-05-29T05:43:32;19.40;99.90
35970;DHT22;22448;51.298;6.430;2023-05-29T05:46:09;20.10;99.40
35970;DHT22;22448;51.298;6.430;2023-05-29T05:48:36;19.80;98.60
35970;DHT22;22448;51.298;6.430;2023-05-29T05:51:04;19.40;99.10
35970;DHT22;22448;51.298;6.430;2023-05-29T05:53:31;19.40;99.30
35970;DHT22;22448;51.298;6.430;2023-05-29T05:55:59;19.90;99.10
35970;DHT22;22448;51.298;6.430;2023-05-29T05:58:26;19.80;98.50
35970;DHT22;22448;51.298;6.430;2023-05-29T06:00:53;19.80;98.60
35970;DHT22;22448;51.298;6.430;2023-05-29T06:03:20;20.60;97.90
35970;DHT22;22448;51.298;6.430;2023-05-29T06:05:56;20.80;96.80
35970;DHT22;22448;51.298;6.430;2023-05-29T06:08:23;21.00;96.60
35970;DHT22;22448;51.298;6.430;2023-05-29T06:10:52;20.50;96.70
35970;DHT22;22448;51.298;6.430;2023-05-29T06:13:19;21.30;96.50
35970;DHT22;22448;51.298;6.430;2023-05-29T06:15:50;21.80;95.90
35970;DHT22;22448;51.298;6.430;2023-05-29T06:18:18;22.30;95.20
35970;DHT22;22448;51.298;6.430;2023-05-29T06:20:45;22.40;94.80
35970;DHT22;22448;51.298;6.430;2023-05-29T06:23:14;22.40;94.60
35970;DHT22;22448;51.298;6.430;2023-05-29T06:25:41;22.80;94.10
35970;DHT22;22448;51.298;6.430;2023-05-29T06:28:08;22.90;93.80
35970;DHT22;22448;51.298;6.430;2023-05-29T06:30:35;22.70;93.70
35970;DHT22;22448;51.298;6.430;2023-05-29T06:33:05;22.40;93.70
35970;DHT22;22448;51.298;6.430;2023-05-29T06:35:35;22.20;93.80
35970;DHT22;22448;51.298;6.430;2023-05-29T06:38:03;22.00;94.00
35970;DHT22;22448;51.298;6.430;2023-05-29T06:40:30;22.20;94.00
35970;DHT22;22448;51.298;6.430;2023-05-29T06:42:57;22.70;93.70
35970;DHT22;22448;51.298;6.430;2023-05-29T06:45:45;23.10;93.20
35970;DHT22;22448;51.298;6.430;2023-05-29T06:48:12;23.20;93.30
35970;DHT22;22448;51.298;6.430;2023-05-29T06:50:40;23.80;92.70
35970;DHT22;22448;51.298;6.430;2023-05-29T06:53:28;24.30;91.90
35970;DHT22;22448;51.298;6.430;2023-05-29T06:55:56;23.80;92.20
35970;DHT22;22448;51.298;6.430;2023-05-29T06:58:23;24.20;91.90
35970;DHT22;22448;51.298;6.430;2023-05-29T07:00:50;24.30;91.50
35970;DHT22;22448;51.298;6.430;2023-05-29T07:03:26;24.10;91.40
35970;DHT22;22448;51.298;6.430;2023-05-29T07:05:54;24.20;91.40
35970;DHT22;22448;51.298;6.430;2023-05-29T07:08:22;23.90;91.70
35970;DHT22;22448;51.298;6.430;2023-05-29T07:10:51;23.60;92.00
35970;DHT22;22448;51.298;6.430;2023-05-29T07:13:20;23.40;92.00
35970;DHT22;22448;51.298;6.430;2023-05-29T07:15:48;24.00;92.10
35970;DHT22;22448;51.298;6.430;2023-05-29T07:18:17;23.50;91.60
35970;DHT22;22448;51.298;6.430;2023-05-29T07:20:44;23.50;91.70
35970;DHT22;22448;51.298;6.430;2023-05-29T07:23:14;23.90;92.10
35970;DHT22;22448;51.298;6.430;2023-05-29T07:25:41;24.10;91.60
35970;DHT22;22448;51.298;6.430;2023-05-29T07:28:09;23.40;91.70
35970;DHT22;22448;51.298;6.430;2023-05-29T07:30:48;23.10;91.70
35970;DHT22;22448;51.298;6.430;2023-05-29T07:33:15;22.90;92.80
35970;DHT22;22448;51.298;6.430;2023-05-29T07:35:43;22.60;92.20
35970;DHT22;22448;51.298;6.430;2023-05-29T07:38:10;22.90;92.70
35970;DHT22;22448;51.298;6.430;2023-05-29T07:40:39;22.90;92.30
35970;DHT22;22448;51.298;6.430;2023-05-29T07:43:19;22.70;92.40
35970;DHT22;22448;51.298;6.430;2023-05-29T07:45:51;22.50;92.80
35970;DHT22;22448;51.298;6.430;2023-05-29T07:48:19;22.30;92.40
35970;DHT22;22448;51.298;6.430;2023-05-29T07:50:50;21.80;92.70
35970;DHT22;22448;51.298;6.430;2023-05-29T07:53:19;22.40;92.80
35970;DHT22;22448;51.298;6.430;2023-05-29T07:55:47;21.40;93.00
35970;DHT22;22448;51.298;6.430;2023-05-29T07:58:15;21.10;93.50
35970;DHT22;22448;51.298;6.430;2023-05-29T08:00:44;21.40;93.40
35970;DHT22;22448;51.298;6.430;2023-05-29T08:03:13;21.20;93.50
35970;DHT22;22448;51.298;6.430;2023-05-29T08:05:59;21.00;93.50
35970;DHT22;22448;51.298;6.430;2023-05-29T08:08:27;21.30;93.50
35970;DHT22;22448;51.298;6.430;2023-05-29T08:10:54;21.20;93.70
35970;DHT22;22448;51.298;6.430;2023-05-29T08:13:22;21.30;93.30
35970;DHT22;22448;51.298;6.430;2023-05-29T08:15:49;21.20;93.10
35970;DHT22;22448;51.298;6.430;2023-05-29T08:18:16;21.10;93.60
35970;DHT22;22448;51.298;6.430;2023-05-29T08:20:42;20.80;93.30
35970;DHT22;22448;51.298;6.430;2023-05-29T08:23:10;20.00;94.00
35970;DHT22;22448;51.298;6.430;2023-05-29T08:25:37;19.60;94.60
35970;DHT22;22448;51.298;6.430;2023-05-29T08:28:04;19.50;94.90
35970;DHT22;22448;51.298;6.430;2023-05-29T08:30:31;19.60;95.40
35970;DHT22;22448;51.298;6.430;2023-05-29T08:32:59;19.30;95.30
35970;DHT22;22448;51.298;6.430;2023-05-29T08:35:26;19.30;95.50
35970;DHT22;22448;51.298;6.430;2023-05-29T08:37:53;19.40;95.60
35970;DHT22;22448;51.298;6.430;2023-05-29T08:40:20;19.20;95.70
35970;DHT22;22448;51.298;6.430;2023-05-29T08:42:54;19.30;96.10
35970;DHT22;22448;51.298;6.430;2023-05-29T08:45:24;19.20;95.80
35970;DHT22;22448;51.298;6.430;2023-05-29T08:47:53;19.10;95.60
35970;DHT22;22448;51.298;6.430;2023-05-29T08:50:21;19.00;96.70
35970;DHT22;22448;51.298;6.430;2023-05-29T08:52:48;18.80;96.50
35970;DHT22;22448;51.298;6.430;2023-05-29T08:55:16;18.60;96.50
35970;DHT22;22448;51.298;6.430;2023-05-29T08:57:43;18.90;97.10
35970;DHT22;22448;51.298;6.430;2023-05-29T09:00:11;19.00;96.80
35970;DHT22;22448;51.298;6.430;2023-05-29T09:02:40;18.70;96.60
35970;DHT22;22448;51.298;6.430;2023-05-29T09:05:07;18.60;96.40
35970;DHT22;22448;51.298;6.430;2023-05-29T09:07:34;18.70;96.70
35970;DHT22;22448;51.298;6.430;2023-05-29T09:10:06;18.70;96.70
35970;DHT22;22448;51.298;6.430;2023-05-29T09:12:34;18.80;96.80
35970;DHT22;22448;51.298;6.430;2023-05-29T09:15:02;18.80;97.10
35970;DHT22;22448;51.298;6.430;2023-05-29T09:17:33;18.80;96.80
35970;DHT22;22448;51.298;6.430;2023-05-29T09:20:00;18.90;96.90
35970;DHT22;22448;51.298;6.430;2023-05-29T09:22:27;18.90;96.90
35970;DHT22;22448;51.298;6.430;2023-05-29T09:24:54;19.00;96.70
35970;DHT22;22448;51.298;6.430;2023-05-29T09:27:22;19.00;96.60
35970;DHT22;22448;51.298;6.430;2023-05-29T09:29:49;19.10;96.80
35970;DHT22;22448;51.298;6.430;2023-05-29T09:32:17;19.00;97.00
35970;DHT22;22448;51.298;6.430;2023-05-29T09:34:45;18.80;96.50
35970;DHT22;22448;51.298;6.430;2023-05-29T09:37:12;18.90;96.90
35970;DHT22;22448;51.298;6.430;2023-05-29T09:39:46;18.80;96.70
35970;DHT22;22448;51.298;6.430;2023-05-29T09:42:16;18.80;96.80
35970;DHT22;22448;51.298;6.430;2023-05-29T09:44:46;18.80;97.10
35970;DHT22;22448;51.298;6.430;2023-05-29T09:47:17;18.80;97.30
35970;DHT22;22448;51.298;6.430;2023-05-29T09:49:45;18.70;96.70
35970;DHT22;22448;51.298;6.430;2023-05-29T09:52:15;18.70;97.30
35970;DHT22;22448;51.298;6.430;2023-05-29T09:54:43;18.90;97.50
35970;DHT22;22448;51.298;6.430;2023-05-29T09:57:14;19.00;97.30
35970;DHT22;22448;51.298;6.430;2023-05-29T09:59:43;19.00;96.50
35970;DHT22;22448;51.298;6.430;2023-05-29T10:02:11;19.00;97.10
35970;DHT22;22448;51.298;6.430;2023-05-29T10:04:40;19.10;96.60
35970;DHT22;22448;51.298;6.430;2023-05-29T10:07:12;19.30;96.80
35970;DHT22;22448;51.298;6.430;2023-05-29T10:09:44;19.10;96.70
35970;DHT22;22448;51.298;6.430;2023-05-29T10:12:15;19.40;96.70
35970;DHT22;22448;51.298;6.430;2023-05-29T10:14:44;19.40;96.70
35970;DHT22;22448;51.298;6.430;2023-05-29T10:17:13;19.50;96.40
35970;DHT22;22448;51.298;6.430;2023-05-29T10:19:41;19.70;96.20
35970;DHT22;22448;51.298;6.430;2023-05-29T10:22:10;19.70;96.20
35970;DHT22;22448;51.298;6.430;2023-05-29T10:24:37;19.80;96.20
35970;DHT22;22448;51.298;6.430;2023-05-29T10:27:05;19.70;96.20
35970;DHT22;22448;51.298;6.430;2023-05-29T10:29:37;19.50;96.40
35970;DHT22;22448;51.298;6.430;2023-05-29T10:40:09;19.80;96.20
35970;DHT22;22448;51.298;6.430;2023-05-29T10:42:48;19.70;95.80
35970;DHT22;22448;51.298;6.430;2023-05-29T10:50:43;19.80;96.60
35970;DHT22;22448;51.298;6.430;2023-05-29T10:53:14;19.90;96.10
35970;DHT22;22448;51.298;6.430;2023-05-29T10:55:41;20.30;96.60
35970;DHT22;22448;51.298;6.430;2023-05-29T10:58:13;20.20;95.90
35970;DHT22;22448;51.298;6.430;2023-05-29T11:00:40;20.30;95.80
35970;DHT22;22448;51.298;6.430;2023-05-29T11:03:09;20.20;95.90
35970;DHT22;22448;51.298;6.430;2023-05-29T11:06:02;20.10;95.80
35970;DHT22;22448;51.298;6.430;2023-05-29T11:08:46;20.10;96.00
35970;DHT22;22448;51.298;6.430;2023-05-29T11:13:57;20.30;95.80
35970;DHT22;22448;51.298;6.430;2023-05-29T11:19:07;20.70;95.00
35970;DHT22;22448;51.298;6.430;2023-05-29T11:26:48;21.00;95.00
35970;DHT22;22448;51.298;6.430;2023-05-29T11:29:15;21.00;94.70
35970;DHT22;22448;51.298;6.430;2023-05-29T11:31:43;20.70;94.90
35970;DHT22;22448;51.298;6.430;2023-05-29T11:34:14;20.70;95.00
35970;DHT22;22448;51.298;6.430;2023-05-29T11:36:42;21.00;96.00
35970;DHT22;22448;51.298;6.430;2023-05-29T11:39:10;21.00;95.00
35970;DHT22;22448;51.298;6.430;2023-05-29T11:41:37;21.00;94.70
35970;DHT22;22448;51.298;6.430;2023-05-29T11:44:04;20.90;95.40
35970;DHT22;22448;51.298;6.430;2023-05-29T11:46:34;20.80;94.70
35970;DHT22;22448;51.298;6.430;2023-05-29T11:49:01;20.90;95.10
35970;DHT22;22448;51.298;6.430;2023-05-29T11:51:29;20.60;95.00
35970;DHT22;22448;51.298;6.430;2023-05-29T11:53:56;20.50;94.90
35970;DHT22;22448;51.298;6.430;2023-05-29T11:56:30;20.50;95.10
35970;DHT22;22448;51.298;6.430;2023-05-29T11:58:58;20.50;95.00
35970;DHT22;22448;51.298;6.430;2023-05-29T12:01:26;20.80;95.40
35970;DHT22;22448;51.298;6.430;2023-05-29T12:03:55;20.80;94.80
35970;DHT22;22448;51.298;6.430;2023-05-29T12:06:35;20.60;94.50
35970;DHT22;22448;51.298;6.430;2023-05-29T12:09:04;20.90;94.80
35970;DHT22;22448;51.298;6.430;2023-05-29T12:11:32;20.90;94.30
35970;DHT22;22448;51.298;6.430;2023-05-29T12:14:01;20.70;94.50
35970;DHT22;22448;51.298;6.430;2023-05-29T12:16:30;20.60;94.60
35970;DHT22;22448;51.298;6.430;2023-05-29T12:18:57;20.60;94.90
35970;DHT22;22448;51.298;6.430;2023-05-29T12:21:27;20.60;94.80
35970;DHT22;22448;51.298;6.430;2023-05-29T12:23:54;20.50;94.40
35970;DHT22;22448;51.298;6.430;2023-05-29T12:26:39;20.50;94.40
35970;DHT22;22448;51.298;6.430;2023-05-29T12:29:06;20.50;95.20
35970;DHT22;22448;51.298;6.430;2023-05-29T12:31:34;20.90;95.00
35970;DHT22;22448;51.298;6.430;2023-05-29T12:34:02;21.00;94.20
35970;DHT22;22448;51.298;6.430;2023-05-29T12:36:34;21.00;94.50
35970;DHT22;22448;51.298;6.430;2023-05-29T12:39:06;21.20;94.70
35970;DHT22;22448;51.298;6.430;2023-05-29T12:41:37;21.40;94.10
35970;DHT22;22448;51.298;6.430;2023-05-29T12:44:05;21.30;93.90
35970;DHT22;22448;51.298;6.430;2023-05-29T12:46:42;21.10;93.80
35970;DHT22;22448;51.298;6.430;2023-05-29T12:49:17;21.30;93.80
35970;DHT22;22448;51.298;6.430;2023-05-29T12:51:47;21.20;94.10
35970;DHT22;22448;51.298;6.430;2023-05-29T12:54:15;21.20;93.50
35970;DHT22;22448;51.298;6.430;2023-05-29T12:56:43;21.10;94.10
35970;DHT22;22448;51.298;6.430;2023-05-29T12:59:11;21.20;93.80
35970;DHT22;22448;51.298;6.430;2023-05-29T13:01:39;21.30;93.70
35970;DHT22;22448;51.298;6.430;2023-05-29T13:04:07;21.00;94.00
35970;DHT22;22448;51.298;6.430;2023-05-29T13:06:35;20.90;94.30
35970;DHT22;22448;51.298;6.430;2023-05-29T13:09:04;20.90;94.10
35970;DHT22;22448;51.298;6.430;2023-05-29T13:11:32;20.90;93.60
35970;DHT22;22448;51.298;6.430;2023-05-29T13:14:00;20.90;94.10
35970;DHT22;22448;51.298;6.430;2023-05-29T13:16:27;20.90;94.00
35970;DHT22;22448;51.298;6.430;2023-05-29T13:18:54;20.90;94.10
35970;DHT22;22448;51.298;6.430;2023-05-29T13:21:21;20.60;93.90
35970;DHT22;22448;51.298;6.430;2023-05-29T13:23:48;20.50;93.90
35970;DHT22;22448;51.298;6.430;2023-05-29T13:26:15;20.50;94.10
35970;DHT22;22448;51.298;6.430;2023-05-29T13:28:42;20.50;94.00
35970;DHT22;22448;51.298;6.430;2023-05-29T13:31:09;20.50;93.90
35970;DHT22;22448;51.298;6.430;2023-05-29T13:33:36;20.40;94.40
35970;DHT22;22448;51.298;6.430;2023-05-29T13:36:03;20.60;94.30
35970;DHT22;22448;51.298;6.430;2023-05-29T13:38:30;20.50;94.00
35970;DHT22;22448;51.298;6.430;2023-05-29T13:40:57;20.70;94.10
35970;DHT22;22448;51.298;6.430;2023-05-29T13:43:24;20.70;93.80
35970;DHT22;22448;51.298;6.430;2023-05-29T13:46:05;20.70;94.00
35970;DHT22;22448;51.298;6.430;2023-05-29T13:48:32;20.60;93.90
35970;DHT22;22448;51.298;6.430;2023-05-29T13:51:00;20.70;93.90
35970;DHT22;22448;51.298;6.430;2023-05-29T13:53:27;20.80;93.80
35970;DHT22;22448;51.298;6.430;2023-05-29T13:55:54;20.80;94.10
35970;DHT22;22448;51.298;6.430;2023-05-29T13:58:22;21.00;94.10
35970;DHT22;22448;51.298;6.430;2023-05-29T14:00:49;20.90;93.70
35970;DHT22;22448;51.298;6.430;2023-05-29T14:03:16;20.90;93.60
35970;DHT22;22448;51.298;6.430;2023-05-29T14:05:45;20.80;93.80
35970;DHT22;22448;51.298;6.430;2023-05-29T14:08:12;20.80;93.90
35970;DHT22;22448;51.298;6.430;2023-05-29T14:10:39;20.70;93.70
35970;DHT22;22448;51.298;6.430;2023-05-29T14:13:06;20.90;93.90
35970;DHT22;22448;51.298;6.430;2023-05-29T14:15:33;20.80;93.10
35970;DHT22;22448;51.298;6.430;2023-05-29T14:18:01;20.60;93.70
35970;DHT22;22448;51.298;6.430;2023-05-29T14:20:29;20.60;93.90
35970;DHT22;22448;51.298;6.430;2023-05-29T14:22:56;20.50;93.60
35970;DHT22;22448;51.298;6.430;2023-05-29T14:25:23;20.50;93.40
35970;DHT22;22448;51.298;6.430;2023-05-29T14:27:50;20.50;93.70
35970;DHT22;22448;51.298;6.430;2023-05-29T14:30:18;20.50;93.70
35970;DHT22;22448;51.298;6.430;2023-05-29T14:32:45;20.40;93.80
35970;DHT22;22448;51.298;6.430;2023-05-29T14:35:12;20.40;93.60
35970;DHT22;22448;51.298;6.430;2023-05-29T14:37:39;20.40;93.70
35970;DHT22;22448;51.298;6.430;2023-05-29T14:40:07;20.40;93.60
35970;DHT22;22448;51.298;6.430;2023-05-29T14:42:34;20.30;94.00
35970;DHT22;22448;51.298;6.430;2023-05-29T14:45:01;20.30;93.80
35970;DHT22;22448;51.298;6.430;2023-05-29T14:47:29;20.30;94.10
35970;DHT22;22448;51.298;6.430;2023-05-29T14:49:56;20.20;93.80
35970;DHT22;22448;51.298;6.430;2023-05-29T14:52:23;20.10;93.60
35970;DHT22;22448;51.298;6.430;2023-05-29T14:54:50;20.10;93.90
35970;DHT22;22448;51.298;6.430;2023-05-29T14:57:17;20.10;93.60
35970;DHT22;22448;51.298;6.430;2023-05-29T14:59:44;20.10;93.10
35970;DHT22;22448;51.298;6.430;2023-05-29T15:02:11;20.10;93.10
35970;DHT22;22448;51.298;6.430;2023-05-29T15:04:38;20.10;93.00
35970;DHT22;22448;51.298;6.430;2023-05-29T15:07:05;20.10;93.70
35970;DHT22;22448;51.298;6.430;2023-05-29T15:09:33;20.20;93.20
35970;DHT22;22448;51.298;6.430;2023-05-29T15:12:00;20.00;93.10
35970;DHT22;22448;51.298;6.430;2023-05-29T15:14:28;19.90;93.40
35970;DHT22;22448;51.298;6.430;2023-05-29T15:16:55;19.90;93.60
35970;DHT22;22448;51.298;6.430;2023-05-29T15:19:22;19.90;93.10
35970;DHT22;22448;51.298;6.430;2023-05-29T15:21:50;19.80;93.50
35970;DHT22;22448;51.298;6.430;2023-05-29T15:24:16;19.80;93.40
35970;DHT22;22448;51.298;6.430;2023-05-29T15:26:44;19.70;92.90
35970;DHT22;22448;51.298;6.430;2023-05-29T15:29:11;19.70;92.90
35970;DHT22;22448;51.298;6.430;2023-05-29T15:31:39;19.60;93.00
35970;DHT22;22448;51.298;6.430;2023-05-29T15:34:06;19.60;93.10
35970;DHT22;22448;51.298;6.430;2023-05-29T15:36:33;19.70;93.60
35970;DHT22;22448;51.298;6.430;2023-05-29T15:39:00;19.70;93.00
35970;DHT22;22448;51.298;6.430;2023-05-29T15:41:27;19.80;92.50
35970;DHT22;22448;51.298;6.430;2023-05-29T15:43:55;19.80;92.40
35970;DHT22;22448;51.298;6.430;2023-05-29T15:46:27;19.70;92.40
35970;DHT22;22448;51.298;6.430;2023-05-29T15:48:55;19.60;92.20
35970;DHT22;22448;51.298;6.430;2023-05-29T15:51:22;19.60;92.30
35970;DHT22;22448;51.298;6.430;2023-05-29T15:53:49;19.60;92.40
35970;DHT22;22448;51.298;6.430;2023-05-29T15:56:16;19.70;91.00
35970;DHT22;22448;51.298;6.430;2023-05-29T15:58:43;19.70;91.40
35970;DHT22;22448;51.298;6.430;2023-05-29T16:01:10;19.80;91.00
35970;DHT22;22448;51.298;6.430;2023-05-29T16:03:38;19.70;90.00
35970;DHT22;22448;51.298;6.430;2023-05-29T16:06:05;19.70;89.00
35970;DHT22;22448;51.298;6.430;2023-05-29T16:08:33;19.60;88.90
35970;DHT22;22448;51.298;6.430;2023-05-29T16:11:00;19.70;89.40
35970;DHT22;22448;51.298;6.430;2023-05-29T16:13:27;19.70;88.30
35970;DHT22;22448;51.298;6.430;2023-05-29T16:15:56;19.60;89.10